首页
METAR-TAF:

METAR-TAF

机场 :

Guidonia Montecelio, 意大利

纬度: 42-00N, 经度: 012-44E, 海拔: 88米

当前天气观测

该预报发布于7小时和44分钟前的17:55 UTC
风速3节,风向东北
温度 18°C
湿度 68%
气压 1019 hPa
能见度10公里或以上
少量云层高于3500英尺

METAR: LIRG 161755Z 04003KT 9999 FEW035 18/12 Q1019 RMK SCT SCT090 MON NE LIB NC VIS MIN 9999 BLU

时间: 03:39 (01:39 UTC)

预报

该预报发布于11小时和39分钟前的14:00 UTC
预报有效从16日的 15点(UTC)到 16日的 24点(UTC)
风速4节,风向西南
能见度10公里或以上
散云层高于3000英尺

TAF: LIRG 161400Z 1615/1624 22004KT 9999 SCT030

超过4000个机场的气象观测和天气预报(METAR&TAF报告)。

可查询的气象台以黄色和红色小点在地图上表示。

将鼠标移到小点上方,可查看气象台名称。

然后点击查看天气观测和预报。

如需切换地图:点击带黑十字的绿色按钮放大地图;点击带横线的绿色按钮缩小地图;或者点击绿色箭头查看邻近地区的地图。


METAR-TAF: